Aviation Digital Data Service (ADDS)

Output produced by METARs form (1936 UTC 23 January 2019)
found at http://www.aviationweather.gov/metar/data/
 
METAR text: LEVD 231930Z 29014KT 9999 FEW049 08/03 Q1010
Conditions at: LEVD (VALLADOLID(MIL/C, ES) observed 1930 UTC 23 January 2019
Temperature: 8.0°C (46°F)
Dewpoint: 3.0°C (37°F) [RH = 71%]
Pressure (altimeter): 29.82 inches Hg (1010.0 mb)
Winds: from the WNW (290 degrees) at 16 MPH (14 knots; 7.2 m/s)
Visibility: 6 or more miles (10+ km)
Ceiling: at least 12,000 feet AGL
Clouds: few clouds at 4900 feet AGL
Weather: no significant weather observed at this time

METAR text: LEVD 231900Z 29014KT 260V330 9999 FEW049 08/04 Q1010
Conditions at: LEVD (VALLADOLID(MIL/C, ES) observed 1900 UTC 23 January 2019
Temperature: 8.0°C (46°F)
Dewpoint: 4.0°C (39°F) [RH = 76%]
Pressure (altimeter): 29.82 inches Hg (1010.0 mb)
Winds: from the WNW (290 degrees) at 16 MPH (14 knots; 7.2 m/s)
Visibility: 6 or more miles (10+ km)
Ceiling: at least 12,000 feet AGL
Clouds: few clouds at 4900 feet AGL
Weather: no significant weather observed at this time

METAR text: LEVD 231830Z 27009KT 9999 FEW049 07/03 Q1010
Conditions at: LEVD (VALLADOLID(MIL/C, ES) observed 1830 UTC 23 January 2019
Temperature: 7.0°C (45°F)
Dewpoint: 3.0°C (37°F) [RH = 76%]
Pressure (altimeter): 29.82 inches Hg (1010.0 mb)
Winds: from the W (270 degrees) at 10 MPH (9 knots; 4.6 m/s)
Visibility: 6 or more miles (10+ km)
Ceiling: at least 12,000 feet AGL
Clouds: few clouds at 4900 feet AGL
Weather: no significant weather observed at this time

METAR text: LEVD 231800Z 29013KT 260V320 9999 FEW049 09/04 Q1010
Conditions at: LEVD (VALLADOLID(MIL/C, ES) observed 1800 UTC 23 January 2019
Temperature: 9.0°C (48°F)
Dewpoint: 4.0°C (39°F) [RH = 71%]
Pressure (altimeter): 29.82 inches Hg (1010.0 mb)
Winds: from the WNW (290 degrees) at 15 MPH (13 knots; 6.7 m/s)
Visibility: 6 or more miles (10+ km)
Ceiling: at least 12,000 feet AGL
Clouds: few clouds at 4900 feet AGL
Weather: no significant weather observed at this time

METAR text: LEVD 231730Z 29017KT 260V320 9999 FEW047 09/04 Q1009
Conditions at: LEVD (VALLADOLID(MIL/C, ES) observed 1730 UTC 23 January 2019
Temperature: 9.0°C (48°F)
Dewpoint: 4.0°C (39°F) [RH = 71%]
Pressure (altimeter): 29.79 inches Hg (1009.0 mb)
Winds: from the WNW (290 degrees) at 20 MPH (17 knots; 8.7 m/s)
Visibility: 6 or more miles (10+ km)
Ceiling: at least 12,000 feet AGL
Clouds: few clouds at 4700 feet AGL
Weather: no significant weather observed at this time

METAR text: LEVD 231700Z 30019KT 9999 FEW049 10/04 Q1009
Conditions at: LEVD (VALLADOLID(MIL/C, ES) observed 1700 UTC 23 January 2019
Temperature: 10.0°C (50°F)
Dewpoint: 4.0°C (39°F) [RH = 66%]
Pressure (altimeter): 29.79 inches Hg (1009.0 mb)
Winds: from the WNW (300 degrees) at 22 MPH (19 knots; 9.8 m/s)
Visibility: 6 or more miles (10+ km)
Ceiling: at least 12,000 feet AGL
Clouds: few clouds at 4900 feet AGL
Weather: no significant weather observed at this time

METAR text: LEVD 231630Z 31020KT 270V330 9999 SCT049 10/04 Q1009
Conditions at: LEVD (VALLADOLID(MIL/C, ES) observed 1630 UTC 23 January 2019
Temperature: 10.0°C (50°F)
Dewpoint: 4.0°C (39°F) [RH = 66%]
Pressure (altimeter): 29.79 inches Hg (1009.0 mb)
Winds: from the NW (310 degrees) at 23 MPH (20 knots; 10.3 m/s)
Visibility: 6 or more miles (10+ km)
Ceiling: at least 12,000 feet AGL
Clouds: scattered clouds at 4900 feet AGL
Weather: no significant weather observed at this time

METAR text: LEVD 231600Z 30020KT 9999 SCT040 11/04 Q1008
Conditions at: LEVD (VALLADOLID(MIL/C, ES) observed 1600 UTC 23 January 2019
Temperature: 11.0°C (52°F)
Dewpoint: 4.0°C (39°F) [RH = 62%]
Pressure (altimeter): 29.76 inches Hg (1008.0 mb)
Winds: from the WNW (300 degrees) at 23 MPH (20 knots; 10.3 m/s)
Visibility: 6 or more miles (10+ km)
Ceiling: at least 12,000 feet AGL
Clouds: scattered clouds at 4000 feet AGL
Weather: no significant weather observed at this time

METAR text: LEVD 231530Z 30021KT 9999 SCT035 SCT042 11/04 Q1008
Conditions at: LEVD (VALLADOLID(MIL/C, ES) observed 1530 UTC 23 January 2019
Temperature: 11.0°C (52°F)
Dewpoint: 4.0°C (39°F) [RH = 62%]
Pressure (altimeter): 29.76 inches Hg (1008.0 mb)
Winds: from the WNW (300 degrees) at 24 MPH (21 knots; 10.8 m/s)
Visibility: 6 or more miles (10+ km)
Ceiling: at least 12,000 feet AGL
Clouds: scattered clouds at 3500 feet AGL
scattered clouds at 4200 feet AGL
Weather: no significant weather observed at this time

METAR text: LEVD 231500Z 31022KT 280V340 9999 SCT037 SCT046 11/04 Q1008
Conditions at: LEVD (VALLADOLID(MIL/C, ES) observed 1500 UTC 23 January 2019
Temperature: 11.0°C (52°F)
Dewpoint: 4.0°C (39°F) [RH = 62%]
Pressure (altimeter): 29.76 inches Hg (1008.0 mb)
Winds: from the NW (310 degrees) at 25 MPH (22 knots; 11.3 m/s)
Visibility: 6 or more miles (10+ km)
Ceiling: at least 12,000 feet AGL
Clouds: scattered clouds at 3700 feet AGL
scattered clouds at 4600 feet AGL
Weather: no significant weather observed at this time

METAR text: LEVD 231430Z 30019KT 9999 BKN037 BKN046 11/05 Q1008
Conditions at: LEVD (VALLADOLID(MIL/C, ES) observed 1430 UTC 23 January 2019
Temperature: 11.0°C (52°F)
Dewpoint: 5.0°C (41°F) [RH = 66%]
Pressure (altimeter): 29.76 inches Hg (1008.0 mb)
Winds: from the WNW (300 degrees) at 22 MPH (19 knots; 9.8 m/s)
Visibility: 6 or more miles (10+ km)
Ceiling: 3700 feet AGL
Clouds: broken clouds at 3700 feet AGL
broken clouds at 4600 feet AGL
Weather: no significant weather observed at this time

METAR text: LEVD 231400Z 30017KT 9999 BKN031 BKN035 OVC043 11/04 Q1009
Conditions at: LEVD (VALLADOLID(MIL/C, ES) observed 1400 UTC 23 January 2019
Temperature: 11.0°C (52°F)
Dewpoint: 4.0°C (39°F) [RH = 62%]
Pressure (altimeter): 29.79 inches Hg (1009.0 mb)
Winds: from the WNW (300 degrees) at 20 MPH (17 knots; 8.7 m/s)
Visibility: 6 or more miles (10+ km)
Ceiling: 3100 feet AGL
Clouds: broken clouds at 3100 feet AGL
broken clouds at 3500 feet AGL
overcast cloud deck at 4300 feet AGL
Weather: no significant weather observed at this time

METAR text: LEVD 231330Z 30013KT 9999 BKN032 BKN039 OVC045 10/05 Q1009
Conditions at: LEVD (VALLADOLID(MIL/C, ES) observed 1330 UTC 23 January 2019
Temperature: 10.0°C (50°F)
Dewpoint: 5.0°C (41°F) [RH = 71%]
Pressure (altimeter): 29.79 inches Hg (1009.0 mb)
Winds: from the WNW (300 degrees) at 15 MPH (13 knots; 6.7 m/s)
Visibility: 6 or more miles (10+ km)
Ceiling: 3200 feet AGL
Clouds: broken clouds at 3200 feet AGL
broken clouds at 3900 feet AGL
overcast cloud deck at 4500 feet AGL
Weather: no significant weather observed at this time

METAR text: LEVD 231300Z 30015KT 9999 BKN030 OVC040 10/05 Q1009
Conditions at: LEVD (VALLADOLID(MIL/C, ES) observed 1300 UTC 23 January 2019
Temperature: 10.0°C (50°F)
Dewpoint: 5.0°C (41°F) [RH = 71%]
Pressure (altimeter): 29.79 inches Hg (1009.0 mb)
Winds: from the WNW (300 degrees) at 17 MPH (15 knots; 7.7 m/s)
Visibility: 6 or more miles (10+ km)
Ceiling: 3000 feet AGL
Clouds: broken clouds at 3000 feet AGL
overcast cloud deck at 4000 feet AGL
Weather: no significant weather observed at this time

METAR text: LEVD 231230Z 30016KT 9999 SCT027 BKN034 OVC042 10/05 Q1010
Conditions at: LEVD (VALLADOLID(MIL/C, ES) observed 1230 UTC 23 January 2019
Temperature: 10.0°C (50°F)
Dewpoint: 5.0°C (41°F) [RH = 71%]
Pressure (altimeter): 29.82 inches Hg (1010.0 mb)
Winds: from the WNW (300 degrees) at 18 MPH (16 knots; 8.2 m/s)
Visibility: 6 or more miles (10+ km)
Ceiling: 3400 feet AGL
Clouds: scattered clouds at 2700 feet AGL
broken clouds at 3400 feet AGL
overcast cloud deck at 4200 feet AGL
Weather: no significant weather observed at this time

METAR text: LEVD 231200Z 29014KT 250V330 9999 SCT029 BKN036 OVC042 10/05 Q1010
Conditions at: LEVD (VALLADOLID(MIL/C, ES) observed 1200 UTC 23 January 2019
Temperature: 10.0°C (50°F)
Dewpoint: 5.0°C (41°F) [RH = 71%]
Pressure (altimeter): 29.82 inches Hg (1010.0 mb)
Winds: from the WNW (290 degrees) at 16 MPH (14 knots; 7.2 m/s)
Visibility: 6 or more miles (10+ km)
Ceiling: 3600 feet AGL
Clouds: scattered clouds at 2900 feet AGL
broken clouds at 3600 feet AGL
overcast cloud deck at 4200 feet AGL
Weather: no significant weather observed at this time

METAR text: LEVD 231130Z 29015KT 260V320 9999 SCT027 OVC033 09/05 Q1010
Conditions at: LEVD (VALLADOLID(MIL/C, ES) observed 1130 UTC 23 January 2019
Temperature: 9.0°C (48°F)
Dewpoint: 5.0°C (41°F) [RH = 76%]
Pressure (altimeter): 29.82 inches Hg (1010.0 mb)
Winds: from the WNW (290 degrees) at 17 MPH (15 knots; 7.7 m/s)
Visibility: 6 or more miles (10+ km)
Ceiling: 3300 feet AGL
Clouds: scattered clouds at 2700 feet AGL
overcast cloud deck at 3300 feet AGL
Weather: no significant weather observed at this time

METAR text: LEVD 231100Z 29015KT 260V320 9999 FEW007 OVC039 09/04 Q1010
Conditions at: LEVD (VALLADOLID(MIL/C, ES) observed 1100 UTC 23 January 2019
Temperature: 9.0°C (48°F)
Dewpoint: 4.0°C (39°F) [RH = 71%]
Pressure (altimeter): 29.82 inches Hg (1010.0 mb)
Winds: from the WNW (290 degrees) at 17 MPH (15 knots; 7.7 m/s)
Visibility: 6 or more miles (10+ km)
Ceiling: 3900 feet AGL
Clouds: few clouds at 700 feet AGL
overcast cloud deck at 3900 feet AGL
Weather: no significant weather observed at this time

METAR text: LEVD 231030Z 28013KT 250V320 9999 FEW007 BKN041 08/05 Q1010
Conditions at: LEVD (VALLADOLID(MIL/C, ES) observed 1030 UTC 23 January 2019
Temperature: 8.0°C (46°F)
Dewpoint: 5.0°C (41°F) [RH = 81%]
Pressure (altimeter): 29.82 inches Hg (1010.0 mb)
Winds: from the W (280 degrees) at 15 MPH (13 knots; 6.7 m/s)
Visibility: 6 or more miles (10+ km)
Ceiling: 4100 feet AGL
Clouds: few clouds at 700 feet AGL
broken clouds at 4100 feet AGL
Weather: no significant weather observed at this time

METAR text: LEVD 231000Z 27011KT 250V310 9999 FEW007 SCT047 07/04 Q1010
Conditions at: LEVD (VALLADOLID(MIL/C, ES) observed 1000 UTC 23 January 2019
Temperature: 7.0°C (45°F)
Dewpoint: 4.0°C (39°F) [RH = 81%]
Pressure (altimeter): 29.82 inches Hg (1010.0 mb)
Winds: from the W (270 degrees) at 13 MPH (11 knots; 5.7 m/s)
Visibility: 6 or more miles (10+ km)
Ceiling: at least 12,000 feet AGL
Clouds: few clouds at 700 feet AGL
scattered clouds at 4700 feet AGL
Weather: no significant weather observed at this time

METAR text: LEVD 230930Z 28014KT 9999 FEW007 SCT042 07/04 Q1009
Conditions at: LEVD (VALLADOLID(MIL/C, ES) observed 0930 UTC 23 January 2019
Temperature: 7.0°C (45°F)
Dewpoint: 4.0°C (39°F) [RH = 81%]
Pressure (altimeter): 29.79 inches Hg (1009.0 mb)
Winds: from the W (280 degrees) at 16 MPH (14 knots; 7.2 m/s)
Visibility: 6 or more miles (10+ km)
Ceiling: at least 12,000 feet AGL
Clouds: few clouds at 700 feet AGL
scattered clouds at 4200 feet AGL
Weather: no significant weather observed at this time

METAR text: LEVD 230900Z 26014KT 9999 FEW007 SCT040 05/04 Q1009
Conditions at: LEVD (VALLADOLID(MIL/C, ES) observed 0900 UTC 23 January 2019
Temperature: 5.0°C (41°F)
Dewpoint: 4.0°C (39°F) [RH = 93%]
Pressure (altimeter): 29.79 inches Hg (1009.0 mb)
Winds: from the W (260 degrees) at 16 MPH (14 knots; 7.2 m/s)
Visibility: 6 or more miles (10+ km)
Ceiling: at least 12,000 feet AGL
Clouds: few clouds at 700 feet AGL
scattered clouds at 4000 feet AGL
Weather: no significant weather observed at this time

METAR text: LEVD 230830Z 26013KT 9999 FEW006 SCT040 04/03 Q1009
Conditions at: LEVD (VALLADOLID(MIL/C, ES) observed 0830 UTC 23 January 2019
Temperature: 4.0°C (39°F)
Dewpoint: 3.0°C (37°F) [RH = 93%]
Pressure (altimeter): 29.79 inches Hg (1009.0 mb)
Winds: from the W (260 degrees) at 15 MPH (13 knots; 6.7 m/s)
Visibility: 6 or more miles (10+ km)
Ceiling: at least 12,000 feet AGL
Clouds: few clouds at 600 feet AGL
scattered clouds at 4000 feet AGL
Weather: no significant weather observed at this time

METAR text: LEVD 230800Z 26015KT 9999 FEW006 SCT040 04/03 Q1009
Conditions at: LEVD (VALLADOLID(MIL/C, ES) observed 0800 UTC 23 January 2019
Temperature: 4.0°C (39°F)
Dewpoint: 3.0°C (37°F) [RH = 93%]
Pressure (altimeter): 29.79 inches Hg (1009.0 mb)
Winds: from the W (260 degrees) at 17 MPH (15 knots; 7.7 m/s)
Visibility: 6 or more miles (10+ km)
Ceiling: at least 12,000 feet AGL
Clouds: few clouds at 600 feet AGL
scattered clouds at 4000 feet AGL
Weather: no significant weather observed at this time

METAR text: LEVD 230730Z 26015KT 9999 FEW006 SCT038 04/03 Q1009
Conditions at: LEVD (VALLADOLID(MIL/C, ES) observed 0730 UTC 23 January 2019
Temperature: 4.0°C (39°F)
Dewpoint: 3.0°C (37°F) [RH = 93%]
Pressure (altimeter): 29.79 inches Hg (1009.0 mb)
Winds: from the W (260 degrees) at 17 MPH (15 knots; 7.7 m/s)
Visibility: 6 or more miles (10+ km)
Ceiling: at least 12,000 feet AGL
Clouds: few clouds at 600 feet AGL
scattered clouds at 3800 feet AGL
Weather: no significant weather observed at this time

METAR text: LEVD 230700Z 26014KT 9999 FEW006 SCT042 04/03 Q1008
Conditions at: LEVD (VALLADOLID(MIL/C, ES) observed 0700 UTC 23 January 2019
Temperature: 4.0°C (39°F)
Dewpoint: 3.0°C (37°F) [RH = 93%]
Pressure (altimeter): 29.76 inches Hg (1008.0 mb)
Winds: from the W (260 degrees) at 16 MPH (14 knots; 7.2 m/s)
Visibility: 6 or more miles (10+ km)
Ceiling: at least 12,000 feet AGL
Clouds: few clouds at 600 feet AGL
scattered clouds at 4200 feet AGL
Weather: no significant weather observed at this time

METAR text: LEVD 230630Z 26013KT 9999 FEW006 SCT043 04/03 Q1009
Conditions at: LEVD (VALLADOLID(MIL/C, ES) observed 0630 UTC 23 January 2019
Temperature: 4.0°C (39°F)
Dewpoint: 3.0°C (37°F) [RH = 93%]
Pressure (altimeter): 29.79 inches Hg (1009.0 mb)
Winds: from the W (260 degrees) at 15 MPH (13 knots; 6.7 m/s)
Visibility: 6 or more miles (10+ km)
Ceiling: at least 12,000 feet AGL
Clouds: few clouds at 600 feet AGL
scattered clouds at 4300 feet AGL
Weather: no significant weather observed at this time

METAR text: LEVD 230600Z 26016KT 9999 SCT006 BKN044 04/03 Q1009
Conditions at: LEVD (VALLADOLID(MIL/C, ES) observed 0600 UTC 23 January 2019
Temperature: 4.0°C (39°F)
Dewpoint: 3.0°C (37°F) [RH = 93%]
Pressure (altimeter): 29.79 inches Hg (1009.0 mb)
Winds: from the W (260 degrees) at 18 MPH (16 knots; 8.2 m/s)
Visibility: 6 or more miles (10+ km)
Ceiling: 4400 feet AGL
Clouds: scattered clouds at 600 feet AGL
broken clouds at 4400 feet AGL
Weather: no significant weather observed at this time

METAR text: LEVD 222030Z 28009KT 9999 FEW045 03/00 Q1012
Conditions at: LEVD (VALLADOLID(MIL/C, ES) observed 2030 UTC 22 January 2019
Temperature: 3.0°C (37°F)
Dewpoint: 0.0°C (32°F) [RH = 81%]
Pressure (altimeter): 29.88 inches Hg (1012.0 mb)
Winds: from the W (280 degrees) at 10 MPH (9 knots; 4.6 m/s)
Visibility: 6 or more miles (10+ km)
Ceiling: at least 12,000 feet AGL
Clouds: few clouds at 4500 feet AGL
Weather: no significant weather observed at this time

METAR text: LEVD 222000Z 28008KT 9999 SCT045 03/01 Q1012
Conditions at: LEVD (VALLADOLID(MIL/C, ES) observed 2000 UTC 22 January 2019
Temperature: 3.0°C (37°F)
Dewpoint: 1.0°C (34°F) [RH = 87%]
Pressure (altimeter): 29.88 inches Hg (1012.0 mb)
Winds: from the W (280 degrees) at 9 MPH (8 knots; 4.1 m/s)
Visibility: 6 or more miles (10+ km)
Ceiling: at least 12,000 feet AGL
Clouds: scattered clouds at 4500 feet AGL
Weather: no significant weather observed at this time

METAR text: LEVD 221930Z 26008KT 9999 FEW035 02/01 Q1013
Conditions at: LEVD (VALLADOLID(MIL/C, ES) observed 1930 UTC 22 January 2019
Temperature: 2.0°C (36°F)
Dewpoint: 1.0°C (34°F) [RH = 93%]
Pressure (altimeter): 29.91 inches Hg (1013.0 mb)
Winds: from the W (260 degrees) at 9 MPH (8 knots; 4.1 m/s)
Visibility: 6 or more miles (10+ km)
Ceiling: at least 12,000 feet AGL
Clouds: few clouds at 3500 feet AGL
Weather: no significant weather observed at this time

METAR text: LEVD 221900Z 25007KT 9999 FEW035 02/01 Q1013
Conditions at: LEVD (VALLADOLID(MIL/C, ES) observed 1900 UTC 22 January 2019
Temperature: 2.0°C (36°F)
Dewpoint: 1.0°C (34°F) [RH = 93%]
Pressure (altimeter): 29.91 inches Hg (1013.0 mb)
Winds: from the WSW (250 degrees) at 8 MPH (7 knots; 3.6 m/s)
Visibility: 6 or more miles (10+ km)
Ceiling: at least 12,000 feet AGL
Clouds: few clouds at 3500 feet AGL
Weather: no significant weather observed at this time

METAR text: LEVD 221830Z 26007KT 9999 FEW028 01/00 Q1013
Conditions at: LEVD (VALLADOLID(MIL/C, ES) observed 1830 UTC 22 January 2019
Temperature: 1.0°C (34°F)
Dewpoint: 0.0°C (32°F) [RH = 93%]
Pressure (altimeter): 29.91 inches Hg (1013.0 mb)
Winds: from the W (260 degrees) at 8 MPH (7 knots; 3.6 m/s)
Visibility: 6 or more miles (10+ km)
Ceiling: at least 12,000 feet AGL
Clouds: few clouds at 2800 feet AGL
Weather: no significant weather observed at this time

METAR text: LEVD 221800Z 27006KT 9999 FEW020 03/02 Q1013
Conditions at: LEVD (VALLADOLID(MIL/C, ES) observed 1800 UTC 22 January 2019
Temperature: 3.0°C (37°F)
Dewpoint: 2.0°C (36°F) [RH = 93%]
Pressure (altimeter): 29.91 inches Hg (1013.0 mb)
Winds: from the W (270 degrees) at 7 MPH (6 knots; 3.1 m/s)
Visibility: 6 or more miles (10+ km)
Ceiling: at least 12,000 feet AGL
Clouds: few clouds at 2000 feet AGL
Weather: no significant weather observed at this time

METAR text: LEVD 221730Z 26007KT 9999 SCT018 03/02 Q1013
Conditions at: LEVD (VALLADOLID(MIL/C, ES) observed 1730 UTC 22 January 2019
Temperature: 3.0°C (37°F)
Dewpoint: 2.0°C (36°F) [RH = 93%]
Pressure (altimeter): 29.91 inches Hg (1013.0 mb)
Winds: from the W (260 degrees) at 8 MPH (7 knots; 3.6 m/s)
Visibility: 6 or more miles (10+ km)
Ceiling: at least 12,000 feet AGL
Clouds: scattered clouds at 1800 feet AGL
Weather: no significant weather observed at this time

METAR text: LEVD 221700Z 28007KT 9999 SCT012 04/03 Q1013
Conditions at: LEVD (VALLADOLID(MIL/C, ES) observed 1700 UTC 22 January 2019
Temperature: 4.0°C (39°F)
Dewpoint: 3.0°C (37°F) [RH = 93%]
Pressure (altimeter): 29.91 inches Hg (1013.0 mb)
Winds: from the W (280 degrees) at 8 MPH (7 knots; 3.6 m/s)
Visibility: 6 or more miles (10+ km)
Ceiling: at least 12,000 feet AGL
Clouds: scattered clouds at 1200 feet AGL
Weather: no significant weather observed at this time

METAR text: LEVD 221630Z 27009KT 9999 SCT008 BKN018 04/03 Q1013
Conditions at: LEVD (VALLADOLID(MIL/C, ES) observed 1630 UTC 22 January 2019
Temperature: 4.0°C (39°F)
Dewpoint: 3.0°C (37°F) [RH = 93%]
Pressure (altimeter): 29.91 inches Hg (1013.0 mb)
Winds: from the W (270 degrees) at 10 MPH (9 knots; 4.6 m/s)
Visibility: 6 or more miles (10+ km)
Ceiling: 1800 feet AGL
Clouds: scattered clouds at 800 feet AGL
broken clouds at 1800 feet AGL
Weather: no significant weather observed at this time

METAR text: LEVD 221600Z 28009KT 9999 SCT008 BKN020 05/03 Q1013
Conditions at: LEVD (VALLADOLID(MIL/C, ES) observed 1600 UTC 22 January 2019
Temperature: 5.0°C (41°F)
Dewpoint: 3.0°C (37°F) [RH = 87%]
Pressure (altimeter): 29.91 inches Hg (1013.0 mb)
Winds: from the W (280 degrees) at 10 MPH (9 knots; 4.6 m/s)
Visibility: 6 or more miles (10+ km)
Ceiling: 2000 feet AGL
Clouds: scattered clouds at 800 feet AGL
broken clouds at 2000 feet AGL
Weather: no significant weather observed at this time

METAR text: LEVD 221530Z 27010KT 9999 SCT012 BKN029 05/03 Q1013
Conditions at: LEVD (VALLADOLID(MIL/C, ES) observed 1530 UTC 22 January 2019
Temperature: 5.0°C (41°F)
Dewpoint: 3.0°C (37°F) [RH = 87%]
Pressure (altimeter): 29.91 inches Hg (1013.0 mb)
Winds: from the W (270 degrees) at 12 MPH (10 knots; 5.1 m/s)
Visibility: 6 or more miles (10+ km)
Ceiling: 2900 feet AGL
Clouds: scattered clouds at 1200 feet AGL
broken clouds at 2900 feet AGL
Weather: no significant weather observed at this time

METAR text: LEVD 221500Z 28011KT 9999 SCT009 BKN030 05/03 Q1013 REDZ
Conditions at: LEVD (VALLADOLID(MIL/C, ES) observed 1500 UTC 22 January 2019
Temperature: 5.0°C (41°F)
Dewpoint: 3.0°C (37°F) [RH = 87%]
Pressure (altimeter): 29.91 inches Hg (1013.0 mb)
Winds: from the W (280 degrees) at 13 MPH (11 knots; 5.7 m/s)
Visibility: 6 or more miles (10+ km)
Ceiling: 3000 feet AGL
Clouds: scattered clouds at 900 feet AGL
broken clouds at 3000 feet AGL
Weather: no significant weather observed at this time

METAR text: LEVD 221430Z 28014KT 9999 DZ BKN007 OVC020 04/03 Q1014
Conditions at: LEVD (VALLADOLID(MIL/C, ES) observed 1430 UTC 22 January 2019
Temperature: 4.0°C (39°F)
Dewpoint: 3.0°C (37°F) [RH = 93%]
Pressure (altimeter): 29.94 inches Hg (1014.0 mb)
Winds: from the W (280 degrees) at 16 MPH (14 knots; 7.2 m/s)
Visibility: 6 or more miles (10+ km)
Ceiling: 700 feet AGL
Clouds: broken clouds at 700 feet AGL
overcast cloud deck at 2000 feet AGL
Weather: DZ  (moderate drizzle)

METAR text: LEVD 221400Z 27013KT 9999 BKN008 OVC030 04/03 Q1014 REDZ
Conditions at: LEVD (VALLADOLID(MIL/C, ES) observed 1400 UTC 22 January 2019
Temperature: 4.0°C (39°F)
Dewpoint: 3.0°C (37°F) [RH = 93%]
Pressure (altimeter): 29.94 inches Hg (1014.0 mb)
Winds: from the W (270 degrees) at 15 MPH (13 knots; 6.7 m/s)
Visibility: 6 or more miles (10+ km)
Ceiling: 800 feet AGL
Clouds: broken clouds at 800 feet AGL
overcast cloud deck at 3000 feet AGL
Weather: no significant weather observed at this time

METAR text: LEVD 221330Z 27012KT 9999 DZ BKN008 OVC029 04/03 Q1015
Conditions at: LEVD (VALLADOLID(MIL/C, ES) observed 1330 UTC 22 January 2019
Temperature: 4.0°C (39°F)
Dewpoint: 3.0°C (37°F) [RH = 93%]
Pressure (altimeter): 29.97 inches Hg (1015.0 mb)
Winds: from the W (270 degrees) at 14 MPH (12 knots; 6.2 m/s)
Visibility: 6 or more miles (10+ km)
Ceiling: 800 feet AGL
Clouds: broken clouds at 800 feet AGL
overcast cloud deck at 2900 feet AGL
Weather: DZ  (moderate drizzle)

METAR text: LEVD 221300Z 27013KT 9999 DZ SCT007 OVC028 04/03 Q1015
Conditions at: LEVD (VALLADOLID(MIL/C, ES) observed 1300 UTC 22 January 2019
Temperature: 4.0°C (39°F)
Dewpoint: 3.0°C (37°F) [RH = 93%]
Pressure (altimeter): 29.97 inches Hg (1015.0 mb)
Winds: from the W (270 degrees) at 15 MPH (13 knots; 6.7 m/s)
Visibility: 6 or more miles (10+ km)
Ceiling: 2800 feet AGL
Clouds: scattered clouds at 700 feet AGL
overcast cloud deck at 2800 feet AGL
Weather: DZ  (moderate drizzle)

METAR text: LEVD 221230Z 25013KT 9999 SCT006 BKN027 04/03 Q1015
Conditions at: LEVD (VALLADOLID(MIL/C, ES) observed 1230 UTC 22 January 2019
Temperature: 4.0°C (39°F)
Dewpoint: 3.0°C (37°F) [RH = 93%]
Pressure (altimeter): 29.97 inches Hg (1015.0 mb)
Winds: from the WSW (250 degrees) at 15 MPH (13 knots; 6.7 m/s)
Visibility: 6 or more miles (10+ km)
Ceiling: 2700 feet AGL
Clouds: scattered clouds at 600 feet AGL
broken clouds at 2700 feet AGL
Weather: no significant weather observed at this time

METAR text: LEVD 221200Z 25015KT 9999 BKN028 OVC039 03/02 Q1016
Conditions at: LEVD (VALLADOLID(MIL/C, ES) observed 1200 UTC 22 January 2019
Temperature: 3.0°C (37°F)
Dewpoint: 2.0°C (36°F) [RH = 93%]
Pressure (altimeter): 30.00 inches Hg (1016.0 mb)
Winds: from the WSW (250 degrees) at 17 MPH (15 knots; 7.7 m/s)
Visibility: 6 or more miles (10+ km)
Ceiling: 2800 feet AGL
Clouds: broken clouds at 2800 feet AGL
overcast cloud deck at 3900 feet AGL
Weather: no significant weather observed at this time

METAR text: LEVD 221130Z 25013KT 9999 BKN028 OVC039 02/01 Q1016
Conditions at: LEVD (VALLADOLID(MIL/C, ES) observed 1130 UTC 22 January 2019
Temperature: 2.0°C (36°F)
Dewpoint: 1.0°C (34°F) [RH = 93%]
Pressure (altimeter): 30.00 inches Hg (1016.0 mb)
Winds: from the WSW (250 degrees) at 15 MPH (13 knots; 6.7 m/s)
Visibility: 6 or more miles (10+ km)
Ceiling: 2800 feet AGL
Clouds: broken clouds at 2800 feet AGL
overcast cloud deck at 3900 feet AGL
Weather: no significant weather observed at this time

METAR text: LEVD 221100Z 25014KT 9999 BKN031 01/00 Q1017
Conditions at: LEVD (VALLADOLID(MIL/C, ES) observed 1100 UTC 22 January 2019
Temperature: 1.0°C (34°F)
Dewpoint: 0.0°C (32°F) [RH = 93%]
Pressure (altimeter): 30.03 inches Hg (1017.0 mb)
Winds: from the WSW (250 degrees) at 16 MPH (14 knots; 7.2 m/s)
Visibility: 6 or more miles (10+ km)
Ceiling: 3100 feet AGL
Clouds: broken clouds at 3100 feet AGL
Weather: no significant weather observed at this time

METAR text: LEVD 221030Z 26012KT 9999 SCT040 01/M00 Q1017
Conditions at: LEVD (VALLADOLID(MIL/C, ES) observed 1030 UTC 22 January 2019
Temperature: 1.0°C (34°F)
Dewpoint: 0.0°C (32°F) [RH = 93%]
Pressure (altimeter): 30.03 inches Hg (1017.0 mb)
Winds: from the W (260 degrees) at 14 MPH (12 knots; 6.2 m/s)
Visibility: 6 or more miles (10+ km)
Ceiling: at least 12,000 feet AGL
Clouds: scattered clouds at 4000 feet AGL
Weather: no significant weather observed at this time

METAR text: LEVD 221000Z 25012KT 9999 SCT045 01/M00 Q1017
Conditions at: LEVD (VALLADOLID(MIL/C, ES) observed 1000 UTC 22 January 2019
Temperature: 1.0°C (34°F)
Dewpoint: 0.0°C (32°F) [RH = 93%]
Pressure (altimeter): 30.03 inches Hg (1017.0 mb)
Winds: from the WSW (250 degrees) at 14 MPH (12 knots; 6.2 m/s)
Visibility: 6 or more miles (10+ km)
Ceiling: at least 12,000 feet AGL
Clouds: scattered clouds at 4500 feet AGL
Weather: no significant weather observed at this time

METAR text: LEVD 220930Z 24011KT 9999 SCT045 00/M01 Q1017
Conditions at: LEVD (VALLADOLID(MIL/C, ES) observed 0930 UTC 22 January 2019
Temperature: 0.0°C (32°F)
Dewpoint: -1.0°C (30°F) [RH = 93%]
Pressure (altimeter): 30.03 inches Hg (1017.0 mb)
Winds: from the WSW (240 degrees) at 13 MPH (11 knots; 5.7 m/s)
Visibility: 6 or more miles (10+ km)
Ceiling: at least 12,000 feet AGL
Clouds: scattered clouds at 4500 feet AGL
Weather: no significant weather observed at this time

METAR text: LEVD 220900Z 23009KT 9999 SCT045 00/M01 Q1017
Conditions at: LEVD (VALLADOLID(MIL/C, ES) observed 0900 UTC 22 January 2019
Temperature: 0.0°C (32°F)
Dewpoint: -1.0°C (30°F) [RH = 93%]
Pressure (altimeter): 30.03 inches Hg (1017.0 mb)
Winds: from the SW (230 degrees) at 10 MPH (9 knots; 4.6 m/s)
Visibility: 6 or more miles (10+ km)
Ceiling: at least 12,000 feet AGL
Clouds: scattered clouds at 4500 feet AGL
Weather: no significant weather observed at this time

METAR text: LEVD 220830Z 24008KT 9999 FEW048 M00/M02 Q1017
Conditions at: LEVD (VALLADOLID(MIL/C, ES) observed 0830 UTC 22 January 2019
Temperature: 0.0°C (32°F)
Dewpoint: -2.0°C (28°F) [RH = 86%]
Pressure (altimeter): 30.03 inches Hg (1017.0 mb)
Winds: from the WSW (240 degrees) at 9 MPH (8 knots; 4.1 m/s)
Visibility: 6 or more miles (10+ km)
Ceiling: at least 12,000 feet AGL
Clouds: few clouds at 4800 feet AGL
Weather: no significant weather observed at this time

METAR text: LEVD 220800Z 25007KT 9999 FEW040 M00/M02 Q1017
Conditions at: LEVD (VALLADOLID(MIL/C, ES) observed 0800 UTC 22 January 2019
Temperature: 0.0°C (32°F)
Dewpoint: -2.0°C (28°F) [RH = 86%]
Pressure (altimeter): 30.03 inches Hg (1017.0 mb)
Winds: from the WSW (250 degrees) at 8 MPH (7 knots; 3.6 m/s)
Visibility: 6 or more miles (10+ km)
Ceiling: at least 12,000 feet AGL
Clouds: few clouds at 4000 feet AGL
Weather: no significant weather observed at this time

Forecast for: LEVD (VALLADOLID(MIL/C, ES)
Text: TAF LEVD 231700Z 2318/2418 29015KT 9999 FEW045 TX12/2415Z TN03/2406Z
Forecast period: 1800 UTC 23 January 2019 to 1800 UTC 24 January 2019
Forecast type: FROM: standard forecast or significant change
Winds: from the WNW (290 degrees) at 17 MPH (15 knots; 7.7 m/s)
Visibility: 6 or more miles 10+ km)
Ceiling: at least 12,000 feet AGL
Clouds: few clouds at 4500 feet AGL
Weather: no significant weather forecast for this period
Text: TEMPO 2318/2320 30015G25KT
Forecast period: 1800 to 2000 UTC 23 January 2019
Forecast type: TEMPORARY: The following changes expected for less than half the time period
Winds: from the WNW (300 degrees) at 17 MPH (15 knots; 7.7 m/s)
gusting to 29 MPH (25 knots; 12.9 m/s)
Visibility: missing
Ceiling: unknown
Clouds: missing
Weather: no significant weather forecast for this period
Text: PROB40
Forecast period: 1100 to 1800 UTC 24 January 2019
Forecast type: TEMPORARY: The following changes expected for less than half the time period
Winds: from the NNW (330 degrees) at 17 MPH (15 knots; 7.7 m/s)
gusting to 29 MPH (25 knots; 12.9 m/s)
Visibility: missing
Ceiling: unknown
Clouds: missing
Weather: no significant weather forecast for this period